sensor_id;sensor_type;location;lat;lon;timestamp;temperature;humidity
12233;DHT22;6179;51.748;8.728;2022-07-15T00:01:45;15.80;89.20
12233;DHT22;6179;51.748;8.728;2022-07-15T00:07:46;15.60;89.70
12233;DHT22;6179;51.748;8.728;2022-07-15T00:13:47;15.50;90.80
12233;DHT22;6179;51.748;8.728;2022-07-15T00:19:47;15.50;91.00
12233;DHT22;6179;51.748;8.728;2022-07-15T00:25:48;15.60;91.00
12233;DHT22;6179;51.748;8.728;2022-07-15T00:31:48;15.60;90.90
12233;DHT22;6179;51.748;8.728;2022-07-15T00:37:49;15.70;90.60
12233;DHT22;6179;51.748;8.728;2022-07-15T00:43:50;15.70;91.30
12233;DHT22;6179;51.748;8.728;2022-07-15T00:49:51;15.60;92.10
12233;DHT22;6179;51.748;8.728;2022-07-15T00:55:53;15.60;92.00
12233;DHT22;6179;51.748;8.728;2022-07-15T01:01:57;15.70;92.20
12233;DHT22;6179;51.748;8.728;2022-07-15T01:07:57;15.80;91.80
12233;DHT22;6179;51.748;8.728;2022-07-15T01:13:59;15.80;90.80
12233;DHT22;6179;51.748;8.728;2022-07-15T01:20:01;15.70;92.00
12233;DHT22;6179;51.748;8.728;2022-07-15T01:26:02;15.60;92.20
12233;DHT22;6179;51.748;8.728;2022-07-15T01:32:03;15.50;92.40
12233;DHT22;6179;51.748;8.728;2022-07-15T01:38:03;15.50;93.00
12233;DHT22;6179;51.748;8.728;2022-07-15T01:44:04;15.60;92.60
12233;DHT22;6179;51.748;8.728;2022-07-15T01:50:05;15.70;92.60
12233;DHT22;6179;51.748;8.728;2022-07-15T01:56:06;16.00;91.20
12233;DHT22;6179;51.748;8.728;2022-07-15T02:02:07;15.70;92.90
12233;DHT22;6179;51.748;8.728;2022-07-15T02:08:08;16.00;92.10
12233;DHT22;6179;51.748;8.728;2022-07-15T02:14:09;16.00;91.80
12233;DHT22;6179;51.748;8.728;2022-07-15T02:20:10;16.00;91.50
12233;DHT22;6179;51.748;8.728;2022-07-15T02:26:12;15.50;93.60
12233;DHT22;6179;51.748;8.728;2022-07-15T02:32:12;15.50;93.40
12233;DHT22;6179;51.748;8.728;2022-07-15T02:38:13;15.20;93.90
12233;DHT22;6179;51.748;8.728;2022-07-15T02:44:14;15.20;93.40
12233;DHT22;6179;51.748;8.728;2022-07-15T02:50:15;15.20;93.20
12233;DHT22;6179;51.748;8.728;2022-07-15T02:56:16;15.00;94.50
12233;DHT22;6179;51.748;8.728;2022-07-15T03:02:17;14.60;95.70
12233;DHT22;6179;51.748;8.728;2022-07-15T03:08:17;14.30;96.40
12233;DHT22;6179;51.748;8.728;2022-07-15T03:14:18;14.20;97.00
12233;DHT22;6179;51.748;8.728;2022-07-15T03:20:19;14.10;97.20
12233;DHT22;6179;51.748;8.728;2022-07-15T03:26:19;13.80;98.00
12233;DHT22;6179;51.748;8.728;2022-07-15T03:32:21;13.80;98.20
12233;DHT22;6179;51.748;8.728;2022-07-15T03:38:22;13.60;98.30
12233;DHT22;6179;51.748;8.728;2022-07-15T03:44:22;13.40;98.30
12233;DHT22;6179;51.748;8.728;2022-07-15T03:50:23;13.30;98.30
12233;DHT22;6179;51.748;8.728;2022-07-15T03:56:23;13.30;98.30
12233;DHT22;6179;51.748;8.728;2022-07-15T04:02:24;13.40;98.30
12233;DHT22;6179;51.748;8.728;2022-07-15T04:08:25;13.40;98.30
12233;DHT22;6179;51.748;8.728;2022-07-15T04:14:25;13.60;98.30
12233;DHT22;6179;51.748;8.728;2022-07-15T04:20:26;13.70;98.30
12233;DHT22;6179;51.748;8.728;2022-07-15T04:26:27;13.60;98.30
12233;DHT22;6179;51.748;8.728;2022-07-15T04:32:28;13.60;98.30
12233;DHT22;6179;51.748;8.728;2022-07-15T04:38:29;13.90;98.30
12233;DHT22;6179;51.748;8.728;2022-07-15T04:44:29;14.10;98.30
12233;DHT22;6179;51.748;8.728;2022-07-15T04:50:30;14.80;96.40
12233;DHT22;6179;51.748;8.728;2022-07-15T04:56:46;14.80;96.60
12233;DHT22;6179;51.748;8.728;2022-07-15T05:02:46;14.70;96.50
12233;DHT22;6179;51.748;8.728;2022-07-15T05:08:47;14.50;97.90
12233;DHT22;6179;51.748;8.728;2022-07-15T05:14:48;14.10;98.30
12233;DHT22;6179;51.748;8.728;2022-07-15T05:20:48;14.30;98.30
12233;DHT22;6179;51.748;8.728;2022-07-15T05:26:49;14.40;98.30
12233;DHT22;6179;51.748;8.728;2022-07-15T05:32:50;14.50;98.30
12233;DHT22;6179;51.748;8.728;2022-07-15T05:38:50;14.80;97.70
12233;DHT22;6179;51.748;8.728;2022-07-15T05:44:53;15.10;96.80
12233;DHT22;6179;51.748;8.728;2022-07-15T05:50:53;15.10;96.00
12233;DHT22;6179;51.748;8.728;2022-07-15T05:56:54;15.50;94.10
12233;DHT22;6179;51.748;8.728;2022-07-15T06:02:55;15.60;93.20
12233;DHT22;6179;51.748;8.728;2022-07-15T06:08:55;15.80;93.50
12233;DHT22;6179;51.748;8.728;2022-07-15T06:14:56;16.30;93.40
12233;DHT22;6179;51.748;8.728;2022-07-15T06:20:57;16.80;88.70
12233;DHT22;6179;51.748;8.728;2022-07-15T06:26:57;16.60;90.80
12233;DHT22;6179;51.748;8.728;2022-07-15T06:32:58;16.70;88.80
12233;DHT22;6179;51.748;8.728;2022-07-15T06:38:59;16.70;89.40
12233;DHT22;6179;51.748;8.728;2022-07-15T06:45:00;17.10;86.50
12233;DHT22;6179;51.748;8.728;2022-07-15T06:51:00;16.60;87.20
12233;DHT22;6179;51.748;8.728;2022-07-15T06:57:01;17.00;87.10
12233;DHT22;6179;51.748;8.728;2022-07-15T07:03:02;16.70;87.30
12233;DHT22;6179;51.748;8.728;2022-07-15T07:09:03;17.30;85.50
12233;DHT22;6179;51.748;8.728;2022-07-15T07:15:04;17.60;84.20
12233;DHT22;6179;51.748;8.728;2022-07-15T07:21:07;17.50;84.70
12233;DHT22;6179;51.748;8.728;2022-07-15T07:27:08;17.20;85.90
12233;DHT22;6179;51.748;8.728;2022-07-15T07:33:08;17.50;85.60
12233;DHT22;6179;51.748;8.728;2022-07-15T07:39:09;17.20;85.10
12233;DHT22;6179;51.748;8.728;2022-07-15T07:45:10;17.70;84.60
12233;DHT22;6179;51.748;8.728;2022-07-15T07:51:11;17.80;86.10
12233;DHT22;6179;51.748;8.728;2022-07-15T07:57:12;18.10;83.00
12233;DHT22;6179;51.748;8.728;2022-07-15T08:03:12;18.70;79.30
12233;DHT22;6179;51.748;8.728;2022-07-15T08:09:13;18.50;78.20
12233;DHT22;6179;51.748;8.728;2022-07-15T08:15:14;18.50;81.90
12233;DHT22;6179;51.748;8.728;2022-07-15T08:21:15;19.10;77.20
12233;DHT22;6179;51.748;8.728;2022-07-15T08:27:17;19.00;77.00
12233;DHT22;6179;51.748;8.728;2022-07-15T08:33:18;18.80;78.00
12233;DHT22;6179;51.748;8.728;2022-07-15T08:39:18;18.80;79.20
12233;DHT22;6179;51.748;8.728;2022-07-15T08:45:19;19.70;75.40
12233;DHT22;6179;51.748;8.728;2022-07-15T08:51:23;19.50;71.40
12233;DHT22;6179;51.748;8.728;2022-07-15T08:57:25;19.20;74.80
12233;DHT22;6179;51.748;8.728;2022-07-15T09:03:26;18.80;74.90
12233;DHT22;6179;51.748;8.728;2022-07-15T09:09:32;19.40;73.70
12233;DHT22;6179;51.748;8.728;2022-07-15T09:15:36;19.90;75.10
12233;DHT22;6179;51.748;8.728;2022-07-15T09:21:37;20.60;71.00
12233;DHT22;6179;51.748;8.728;2022-07-15T09:27:44;20.40;69.30
12233;DHT22;6179;51.748;8.728;2022-07-15T09:33:45;19.80;72.70
12233;DHT22;6179;51.748;8.728;2022-07-15T09:39:56;19.90;70.70
12233;DHT22;6179;51.748;8.728;2022-07-15T09:45:59;20.10;73.80
12233;DHT22;6179;51.748;8.728;2022-07-15T09:52:01;19.80;73.80
12233;DHT22;6179;51.748;8.728;2022-07-15T09:58:03;20.20;68.80
12233;DHT22;6179;51.748;8.728;2022-07-15T10:04:05;20.30;70.30
12233;DHT22;6179;51.748;8.728;2022-07-15T10:10:07;21.10;69.80
12233;DHT22;6179;51.748;8.728;2022-07-15T10:16:26;20.90;69.30
12233;DHT22;6179;51.748;8.728;2022-07-15T10:29:09;20.60;67.80
12233;DHT22;6179;51.748;8.728;2022-07-15T10:35:41;20.10;68.20
12233;DHT22;6179;51.748;8.728;2022-07-15T10:48:32;20.60;67.30
12233;DHT22;6179;51.748;8.728;2022-07-15T11:00:34;20.60;66.90
12233;DHT22;6179;51.748;8.728;2022-07-15T11:13:10;21.00;67.30
12233;DHT22;6179;51.748;8.728;2022-07-15T11:19:11;21.40;64.00
12233;DHT22;6179;51.748;8.728;2022-07-15T11:25:26;21.20;66.00
12233;DHT22;6179;51.748;8.728;2022-07-15T11:31:27;21.70;64.20
12233;DHT22;6179;51.748;8.728;2022-07-15T11:37:32;21.40;64.10
12233;DHT22;6179;51.748;8.728;2022-07-15T11:43:33;21.60;64.70
12233;DHT22;6179;51.748;8.728;2022-07-15T11:50:01;22.20;62.40
12233;DHT22;6179;51.748;8.728;2022-07-15T11:56:03;22.70;60.90
12233;DHT22;6179;51.748;8.728;2022-07-15T12:08:06;22.10;61.50
12233;DHT22;6179;51.748;8.728;2022-07-15T12:14:11;22.10;62.50
12233;DHT22;6179;51.748;8.728;2022-07-15T12:20:12;22.40;64.60
12233;DHT22;6179;51.748;8.728;2022-07-15T12:26:13;22.60;60.90
12233;DHT22;6179;51.748;8.728;2022-07-15T12:32:14;22.30;61.50
12233;DHT22;6179;51.748;8.728;2022-07-15T12:38:27;22.60;64.60
12233;DHT22;6179;51.748;8.728;2022-07-15T12:44:31;22.80;61.30
12233;DHT22;6179;51.748;8.728;2022-07-15T12:56:50;22.90;62.10
12233;DHT22;6179;51.748;8.728;2022-07-15T13:09:08;22.40;62.60
12233;DHT22;6179;51.748;8.728;2022-07-15T13:15:09;22.70;61.40
12233;DHT22;6179;51.748;8.728;2022-07-15T13:21:10;22.90;60.70
12233;DHT22;6179;51.748;8.728;2022-07-15T13:27:11;22.60;61.40
12233;DHT22;6179;51.748;8.728;2022-07-15T13:33:11;22.40;61.50
12233;DHT22;6179;51.748;8.728;2022-07-15T13:39:13;22.40;62.90
12233;DHT22;6179;51.748;8.728;2022-07-15T13:45:14;22.90;61.40
12233;DHT22;6179;51.748;8.728;2022-07-15T13:51:14;23.30;58.50
12233;DHT22;6179;51.748;8.728;2022-07-15T13:57:24;22.90;58.60
12233;DHT22;6179;51.748;8.728;2022-07-15T14:03:25;23.30;57.70
12233;DHT22;6179;51.748;8.728;2022-07-15T14:09:26;22.90;59.30
12233;DHT22;6179;51.748;8.728;2022-07-15T14:15:27;22.70;60.60
12233;DHT22;6179;51.748;8.728;2022-07-15T14:21:28;22.40;61.20
12233;DHT22;6179;51.748;8.728;2022-07-15T14:27:28;22.50;60.80
12233;DHT22;6179;51.748;8.728;2022-07-15T14:33:29;22.50;58.20
12233;DHT22;6179;51.748;8.728;2022-07-15T14:39:30;21.90;61.90
12233;DHT22;6179;51.748;8.728;2022-07-15T14:45:31;21.40;61.50
12233;DHT22;6179;51.748;8.728;2022-07-15T14:51:32;21.70;61.90
12233;DHT22;6179;51.748;8.728;2022-07-15T14:57:33;21.80;60.40
12233;DHT22;6179;51.748;8.728;2022-07-15T15:03:33;22.10;58.00
12233;DHT22;6179;51.748;8.728;2022-07-15T15:09:34;21.90;58.40
12233;DHT22;6179;51.748;8.728;2022-07-15T15:15:35;21.80;58.50
12233;DHT22;6179;51.748;8.728;2022-07-15T15:21:36;21.50;61.70
12233;DHT22;6179;51.748;8.728;2022-07-15T15:27:37;21.20;60.70
12233;DHT22;6179;51.748;8.728;2022-07-15T15:33:38;21.50;63.50
12233;DHT22;6179;51.748;8.728;2022-07-15T15:39:39;21.70;62.00
12233;DHT22;6179;51.748;8.728;2022-07-15T15:45:40;21.90;61.40
12233;DHT22;6179;51.748;8.728;2022-07-15T15:51:41;22.20;61.70
12233;DHT22;6179;51.748;8.728;2022-07-15T15:57:42;22.00;61.80
12233;DHT22;6179;51.748;8.728;2022-07-15T16:03:43;22.30;59.70
12233;DHT22;6179;51.748;8.728;2022-07-15T16:09:44;22.20;63.10
12233;DHT22;6179;51.748;8.728;2022-07-15T16:15:44;22.00;63.50
12233;DHT22;6179;51.748;8.728;2022-07-15T16:21:45;22.50;63.90
12233;DHT22;6179;51.748;8.728;2022-07-15T16:28:08;22.10;61.00
12233;DHT22;6179;51.748;8.728;2022-07-15T16:34:11;22.30;61.10
12233;DHT22;6179;51.748;8.728;2022-07-15T16:40:12;22.30;61.40
12233;DHT22;6179;51.748;8.728;2022-07-15T16:46:13;21.70;63.80
12233;DHT22;6179;51.748;8.728;2022-07-15T16:52:13;22.20;61.90
12233;DHT22;6179;51.748;8.728;2022-07-15T16:58:14;22.20;62.50
12233;DHT22;6179;51.748;8.728;2022-07-15T17:04:15;22.20;62.20
12233;DHT22;6179;51.748;8.728;2022-07-15T17:10:17;22.20;63.30
12233;DHT22;6179;51.748;8.728;2022-07-15T17:16:17;22.10;60.30
12233;DHT22;6179;51.748;8.728;2022-07-15T17:22:18;22.20;60.50
12233;DHT22;6179;51.748;8.728;2022-07-15T17:28:19;21.90;61.80
12233;DHT22;6179;51.748;8.728;2022-07-15T17:34:20;21.80;64.00
12233;DHT22;6179;51.748;8.728;2022-07-15T17:40:20;21.80;62.90
12233;DHT22;6179;51.748;8.728;2022-07-15T17:46:21;21.70;62.70
12233;DHT22;6179;51.748;8.728;2022-07-15T17:52:22;21.40;65.40
12233;DHT22;6179;51.748;8.728;2022-07-15T17:58:23;21.40;65.70
12233;DHT22;6179;51.748;8.728;2022-07-15T18:04:24;22.10;63.10
12233;DHT22;6179;51.748;8.728;2022-07-15T18:10:25;21.60;65.00
12233;DHT22;6179;51.748;8.728;2022-07-15T18:16:26;21.40;63.10
12233;DHT22;6179;51.748;8.728;2022-07-15T18:22:27;21.20;65.60
12233;DHT22;6179;51.748;8.728;2022-07-15T18:28:28;21.00;63.90
12233;DHT22;6179;51.748;8.728;2022-07-15T18:34:28;20.70;64.90
12233;DHT22;6179;51.748;8.728;2022-07-15T18:40:29;20.90;66.30
12233;DHT22;6179;51.748;8.728;2022-07-15T18:46:30;20.80;68.30
12233;DHT22;6179;51.748;8.728;2022-07-15T18:52:31;20.90;64.70
12233;DHT22;6179;51.748;8.728;2022-07-15T18:58:32;20.70;66.10
12233;DHT22;6179;51.748;8.728;2022-07-15T19:04:33;20.30;66.20
12233;DHT22;6179;51.748;8.728;2022-07-15T19:10:34;20.20;66.50
12233;DHT22;6179;51.748;8.728;2022-07-15T19:16:35;20.00;66.80
12233;DHT22;6179;51.748;8.728;2022-07-15T19:22:36;19.80;67.50
12233;DHT22;6179;51.748;8.728;2022-07-15T19:28:37;19.60;69.40
12233;DHT22;6179;51.748;8.728;2022-07-15T19:34:37;19.40;71.00
12233;DHT22;6179;51.748;8.728;2022-07-15T19:40:38;19.20;71.10
12233;DHT22;6179;51.748;8.728;2022-07-15T19:46:39;19.00;71.20
12233;DHT22;6179;51.748;8.728;2022-07-15T19:52:41;18.80;72.90
12233;DHT22;6179;51.748;8.728;2022-07-15T19:58:44;18.60;73.80
12233;DHT22;6179;51.748;8.728;2022-07-15T20:04:45;18.30;75.20
12233;DHT22;6179;51.748;8.728;2022-07-15T20:10:46;18.00;76.60
12233;DHT22;6179;51.748;8.728;2022-07-15T20:16:46;17.90;78.00
12233;DHT22;6179;51.748;8.728;2022-07-15T20:22:48;17.70;79.20
12233;DHT22;6179;51.748;8.728;2022-07-15T20:28:49;17.30;80.20
12233;DHT22;6179;51.748;8.728;2022-07-15T20:34:50;17.00;81.40
12233;DHT22;6179;51.748;8.728;2022-07-15T20:40:51;16.80;81.70
12233;DHT22;6179;51.748;8.728;2022-07-15T20:46:51;16.70;82.00
12233;DHT22;6179;51.748;8.728;2022-07-15T20:52:52;16.50;82.80
12233;DHT22;6179;51.748;8.728;2022-07-15T20:58:53;16.30;84.30
12233;DHT22;6179;51.748;8.728;2022-07-15T21:04:54;16.20;83.70
12233;DHT22;6179;51.748;8.728;2022-07-15T21:10:55;16.10;84.90
12233;DHT22;6179;51.748;8.728;2022-07-15T21:16:55;16.00;85.80
12233;DHT22;6179;51.748;8.728;2022-07-15T21:22:56;15.80;86.70
12233;DHT22;6179;51.748;8.728;2022-07-15T21:28:57;15.70;87.00
12233;DHT22;6179;51.748;8.728;2022-07-15T21:34:58;15.70;87.50
12233;DHT22;6179;51.748;8.728;2022-07-15T21:40:58;15.50;89.20
12233;DHT22;6179;51.748;8.728;2022-07-15T21:46:59;15.50;89.20
12233;DHT22;6179;51.748;8.728;2022-07-15T21:53:00;15.60;89.00
12233;DHT22;6179;51.748;8.728;2022-07-15T21:59:01;15.60;89.20
12233;DHT22;6179;51.748;8.728;2022-07-15T22:05:01;15.60;88.50
12233;DHT22;6179;51.748;8.728;2022-07-15T22:11:02;15.40;88.30
12233;DHT22;6179;51.748;8.728;2022-07-15T22:17:03;15.30;88.50
12233;DHT22;6179;51.748;8.728;2022-07-15T22:23:03;15.10;88.90
12233;DHT22;6179;51.748;8.728;2022-07-15T22:29:05;14.90;89.20
12233;DHT22;6179;51.748;8.728;2022-07-15T22:35:06;14.80;90.20
12233;DHT22;6179;51.748;8.728;2022-07-15T22:41:07;14.60;89.80
12233;DHT22;6179;51.748;8.728;2022-07-15T22:47:08;14.60;90.40
12233;DHT22;6179;51.748;8.728;2022-07-15T22:53:09;14.50;90.80
12233;DHT22;6179;51.748;8.728;2022-07-15T22:59:09;14.40;90.90
12233;DHT22;6179;51.748;8.728;2022-07-15T23:05:12;14.30;91.40
12233;DHT22;6179;51.748;8.728;2022-07-15T23:11:13;14.30;91.20
12233;DHT22;6179;51.748;8.728;2022-07-15T23:17:14;14.20;91.20
12233;DHT22;6179;51.748;8.728;2022-07-15T23:23:14;14.10;91.30
12233;DHT22;6179;51.748;8.728;2022-07-15T23:29:15;14.10;92.10
12233;DHT22;6179;51.748;8.728;2022-07-15T23:35:16;14.00;91.80
12233;DHT22;6179;51.748;8.728;2022-07-15T23:41:17;13.90;91.60
12233;DHT22;6179;51.748;8.728;2022-07-15T23:47:17;13.90;91.70
12233;DHT22;6179;51.748;8.728;2022-07-15T23:53:21;14.00;91.10
12233;DHT22;6179;51.748;8.728;2022-07-15T23:59:22;14.00;91.30
